sensor_id;sensor_type;location;lat;lon;timestamp;P1;durP1;ratioP1;P2;durP2;ratioP2
14076;SDS011;7114;51.100;13.998;2022-12-17T00:02:27;55.35;;;20.50;;
14076;SDS011;7114;51.100;13.998;2022-12-17T00:05:11;54.97;;;19.98;;
14076;SDS011;7114;51.100;13.998;2022-12-17T00:07:56;54.43;;;19.93;;
14076;SDS011;7114;51.100;13.998;2022-12-17T00:10:41;59.35;;;20.73;;
14076;SDS011;7114;51.100;13.998;2022-12-17T00:13:25;54.67;;;20.23;;
14076;SDS011;7114;51.100;13.998;2022-12-17T00:16:09;49.10;;;18.83;;
14076;SDS011;7114;51.100;13.998;2022-12-17T00:18:53;51.85;;;19.83;;
14076;SDS011;7114;51.100;13.998;2022-12-17T00:21:37;57.70;;;20.73;;
14076;SDS011;7114;51.100;13.998;2022-12-17T00:24:22;53.05;;;18.90;;
14076;SDS011;7114;51.100;13.998;2022-12-17T00:27:06;56.50;;;21.05;;
14076;SDS011;7114;51.100;13.998;2022-12-17T00:29:50;53.78;;;19.70;;
14076;SDS011;7114;51.100;13.998;2022-12-17T00:32:34;55.80;;;19.45;;
14076;SDS011;7114;51.100;13.998;2022-12-17T00:35:18;50.40;;;18.93;;
14076;SDS011;7114;51.100;13.998;2022-12-17T00:38:02;51.97;;;19.85;;
14076;SDS011;7114;51.100;13.998;2022-12-17T00:40:50;53.25;;;19.58;;
14076;SDS011;7114;51.100;13.998;2022-12-17T00:43:34;51.72;;;19.30;;
14076;SDS011;7114;51.100;13.998;2022-12-17T00:46:18;55.95;;;20.40;;
14076;SDS011;7114;51.100;13.998;2022-12-17T00:49:02;58.77;;;20.87;;
14076;SDS011;7114;51.100;13.998;2022-12-17T00:51:46;59.05;;;20.33;;
14076;SDS011;7114;51.100;13.998;2022-12-17T00:54:30;52.05;;;19.23;;
14076;SDS011;7114;51.100;13.998;2022-12-17T00:57:15;54.80;;;20.33;;
14076;SDS011;7114;51.100;13.998;2022-12-17T00:59:59;46.85;;;18.58;;
14076;SDS011;7114;51.100;13.998;2022-12-17T01:02:43;53.07;;;19.07;;
14076;SDS011;7114;51.100;13.998;2022-12-17T01:05:27;51.55;;;19.60;;
14076;SDS011;7114;51.100;13.998;2022-12-17T01:08:12;52.00;;;19.30;;
14076;SDS011;7114;51.100;13.998;2022-12-17T01:10:57;55.40;;;20.10;;
14076;SDS011;7114;51.100;13.998;2022-12-17T01:13:43;50.15;;;19.33;;
14076;SDS011;7114;51.100;13.998;2022-12-17T01:16:27;51.63;;;18.90;;
14076;SDS011;7114;51.100;13.998;2022-12-17T01:19:11;50.55;;;19.13;;
14076;SDS011;7114;51.100;13.998;2022-12-17T01:21:55;57.70;;;19.83;;
14076;SDS011;7114;51.100;13.998;2022-12-17T01:24:39;51.67;;;18.80;;
14076;SDS011;7114;51.100;13.998;2022-12-17T01:27:23;54.72;;;19.80;;
14076;SDS011;7114;51.100;13.998;2022-12-17T01:30:08;51.30;;;19.07;;
14076;SDS011;7114;51.100;13.998;2022-12-17T01:32:58;51.75;;;18.95;;
14076;SDS011;7114;51.100;13.998;2022-12-17T01:35:43;50.00;;;19.48;;
14076;SDS011;7114;51.100;13.998;2022-12-17T01:38:27;52.25;;;19.13;;
14076;SDS011;7114;51.100;13.998;2022-12-17T01:41:11;52.78;;;19.20;;
14076;SDS011;7114;51.100;13.998;2022-12-17T01:43:55;53.67;;;19.83;;
14076;SDS011;7114;51.100;13.998;2022-12-17T01:46:43;50.13;;;18.10;;
14076;SDS011;7114;51.100;13.998;2022-12-17T01:49:31;53.85;;;19.13;;
14076;SDS011;7114;51.100;13.998;2022-12-17T01:52:15;50.13;;;18.98;;
14076;SDS011;7114;51.100;13.998;2022-12-17T01:54:59;51.63;;;19.35;;
14076;SDS011;7114;51.100;13.998;2022-12-17T01:57:43;54.33;;;19.33;;
14076;SDS011;7114;51.100;13.998;2022-12-17T02:00:27;52.85;;;19.52;;
14076;SDS011;7114;51.100;13.998;2022-12-17T02:03:13;56.40;;;19.17;;
14076;SDS011;7114;51.100;13.998;2022-12-17T02:05:59;51.60;;;19.13;;
14076;SDS011;7114;51.100;13.998;2022-12-17T02:08:47;48.33;;;19.33;;
14076;SDS011;7114;51.100;13.998;2022-12-17T02:11:34;46.67;;;18.97;;
14076;SDS011;7114;51.100;13.998;2022-12-17T02:14:27;50.25;;;19.30;;
14076;SDS011;7114;51.100;13.998;2022-12-17T02:17:15;55.40;;;19.50;;
14076;SDS011;7114;51.100;13.998;2022-12-17T02:20:04;54.17;;;19.63;;
14076;SDS011;7114;51.100;13.998;2022-12-17T02:22:58;48.30;;;18.67;;
14076;SDS011;7114;51.100;13.998;2022-12-17T02:25:47;51.93;;;18.73;;
14076;SDS011;7114;51.100;13.998;2022-12-17T02:28:35;53.95;;;19.42;;
14076;SDS011;7114;51.100;13.998;2022-12-17T02:31:19;52.72;;;19.08;;
14076;SDS011;7114;51.100;13.998;2022-12-17T02:34:03;50.67;;;18.63;;
14076;SDS011;7114;51.100;13.998;2022-12-17T02:36:47;52.60;;;18.98;;
14076;SDS011;7114;51.100;13.998;2022-12-17T02:39:31;51.23;;;18.63;;
14076;SDS011;7114;51.100;13.998;2022-12-17T02:42:15;53.70;;;19.48;;
14076;SDS011;7114;51.100;13.998;2022-12-17T02:45:01;54.25;;;19.17;;
14076;SDS011;7114;51.100;13.998;2022-12-17T02:47:46;52.10;;;19.73;;
14076;SDS011;7114;51.100;13.998;2022-12-17T02:50:30;51.00;;;18.95;;
14076;SDS011;7114;51.100;13.998;2022-12-17T02:53:14;49.33;;;19.37;;
14076;SDS011;7114;51.100;13.998;2022-12-17T02:55:58;50.95;;;19.73;;
14076;SDS011;7114;51.100;13.998;2022-12-17T02:58:42;52.47;;;19.20;;
14076;SDS011;7114;51.100;13.998;2022-12-17T03:01:27;53.75;;;19.00;;
14076;SDS011;7114;51.100;13.998;2022-12-17T03:04:11;58.35;;;19.10;;
14076;SDS011;7114;51.100;13.998;2022-12-17T03:06:55;51.53;;;19.07;;
14076;SDS011;7114;51.100;13.998;2022-12-17T03:09:39;51.88;;;19.58;;
14076;SDS011;7114;51.100;13.998;2022-12-17T03:12:23;52.15;;;19.02;;
14076;SDS011;7114;51.100;13.998;2022-12-17T03:15:07;48.78;;;19.17;;
14076;SDS011;7114;51.100;13.998;2022-12-17T03:17:53;53.33;;;19.05;;
14076;SDS011;7114;51.100;13.998;2022-12-17T03:20:37;54.67;;;20.23;;
14076;SDS011;7114;51.100;13.998;2022-12-17T03:23:21;52.33;;;19.55;;
14076;SDS011;7114;51.100;13.998;2022-12-17T03:26:05;53.35;;;19.77;;
14076;SDS011;7114;51.100;13.998;2022-12-17T03:28:49;55.40;;;18.58;;
14076;SDS011;7114;51.100;13.998;2022-12-17T03:31:33;53.58;;;19.77;;
14076;SDS011;7114;51.100;13.998;2022-12-17T03:34:18;50.53;;;19.57;;
14076;SDS011;7114;51.100;13.998;2022-12-17T03:37:02;52.55;;;19.42;;
14076;SDS011;7114;51.100;13.998;2022-12-17T03:39:46;51.38;;;19.52;;
14076;SDS011;7114;51.100;13.998;2022-12-17T03:42:30;51.40;;;18.63;;
14076;SDS011;7114;51.100;13.998;2022-12-17T03:45:14;49.08;;;18.20;;
14076;SDS011;7114;51.100;13.998;2022-12-17T03:48:05;52.60;;;18.90;;
14076;SDS011;7114;51.100;13.998;2022-12-17T03:50:51;51.90;;;19.27;;
14076;SDS011;7114;51.100;13.998;2022-12-17T03:53:35;54.80;;;19.10;;
14076;SDS011;7114;51.100;13.998;2022-12-17T03:56:19;52.55;;;18.98;;
14076;SDS011;7114;51.100;13.998;2022-12-17T03:59:03;53.55;;;18.73;;
14076;SDS011;7114;51.100;13.998;2022-12-17T04:01:47;52.70;;;18.83;;
14076;SDS011;7114;51.100;13.998;2022-12-17T04:04:31;53.17;;;18.65;;
14076;SDS011;7114;51.100;13.998;2022-12-17T04:07:16;54.95;;;18.27;;
14076;SDS011;7114;51.100;13.998;2022-12-17T04:10:00;52.72;;;19.45;;
14076;SDS011;7114;51.100;13.998;2022-12-17T04:12:44;58.55;;;20.10;;
14076;SDS011;7114;51.100;13.998;2022-12-17T04:15:28;52.80;;;19.10;;
14076;SDS011;7114;51.100;13.998;2022-12-17T04:18:11;52.95;;;18.70;;
14076;SDS011;7114;51.100;13.998;2022-12-17T04:20:55;59.08;;;19.55;;
14076;SDS011;7114;51.100;13.998;2022-12-17T04:23:41;54.15;;;19.45;;
14076;SDS011;7114;51.100;13.998;2022-12-17T04:26:24;53.38;;;19.23;;
14076;SDS011;7114;51.100;13.998;2022-12-17T04:29:08;56.20;;;18.80;;
14076;SDS011;7114;51.100;13.998;2022-12-17T04:31:52;54.58;;;19.60;;
14076;SDS011;7114;51.100;13.998;2022-12-17T04:34:36;55.47;;;18.65;;
14076;SDS011;7114;51.100;13.998;2022-12-17T04:37:20;54.38;;;19.25;;
14076;SDS011;7114;51.100;13.998;2022-12-17T04:40:07;56.33;;;19.35;;
14076;SDS011;7114;51.100;13.998;2022-12-17T04:42:52;49.40;;;18.50;;
14076;SDS011;7114;51.100;13.998;2022-12-17T04:45:36;56.83;;;19.05;;
14076;SDS011;7114;51.100;13.998;2022-12-17T04:48:20;55.03;;;19.05;;
14076;SDS011;7114;51.100;13.998;2022-12-17T04:51:15;62.25;;;18.85;;
14076;SDS011;7114;51.100;13.998;2022-12-17T04:53:59;53.67;;;18.77;;
14076;SDS011;7114;51.100;13.998;2022-12-17T04:56:45;48.87;;;18.10;;
14076;SDS011;7114;51.100;13.998;2022-12-17T04:59:28;55.78;;;18.70;;
14076;SDS011;7114;51.100;13.998;2022-12-17T05:02:12;49.42;;;18.35;;
14076;SDS011;7114;51.100;13.998;2022-12-17T05:04:56;55.83;;;18.92;;
14076;SDS011;7114;51.100;13.998;2022-12-17T05:07:40;53.63;;;19.05;;
14076;SDS011;7114;51.100;13.998;2022-12-17T05:10:24;53.57;;;18.70;;
14076;SDS011;7114;51.100;13.998;2022-12-17T05:13:10;56.40;;;18.88;;
14076;SDS011;7114;51.100;13.998;2022-12-17T05:15:54;54.83;;;18.83;;
14076;SDS011;7114;51.100;13.998;2022-12-17T05:18:38;57.20;;;19.65;;
14076;SDS011;7114;51.100;13.998;2022-12-17T05:21:22;48.92;;;18.55;;
14076;SDS011;7114;51.100;13.998;2022-12-17T05:24:06;52.80;;;19.17;;
14076;SDS011;7114;51.100;13.998;2022-12-17T05:26:50;54.75;;;18.33;;
14076;SDS011;7114;51.100;13.998;2022-12-17T05:29:35;51.60;;;18.13;;
14076;SDS011;7114;51.100;13.998;2022-12-17T05:32:19;50.10;;;18.75;;
14076;SDS011;7114;51.100;13.998;2022-12-17T05:35:03;54.60;;;18.55;;
14076;SDS011;7114;51.100;13.998;2022-12-17T05:37:48;58.87;;;20.13;;
14076;SDS011;7114;51.100;13.998;2022-12-17T05:40:32;59.35;;;20.10;;
14076;SDS011;7114;51.100;13.998;2022-12-17T05:43:30;54.33;;;18.05;;
14076;SDS011;7114;51.100;13.998;2022-12-17T05:46:15;58.67;;;18.52;;
14076;SDS011;7114;51.100;13.998;2022-12-17T05:49:00;55.58;;;19.02;;
14076;SDS011;7114;51.100;13.998;2022-12-17T05:51:43;61.10;;;20.67;;
14076;SDS011;7114;51.100;13.998;2022-12-17T05:54:27;54.15;;;19.88;;
14076;SDS011;7114;51.100;13.998;2022-12-17T05:57:11;56.50;;;20.92;;
14076;SDS011;7114;51.100;13.998;2022-12-17T05:59:55;59.92;;;21.35;;
14076;SDS011;7114;51.100;13.998;2022-12-17T06:02:41;58.45;;;21.33;;
14076;SDS011;7114;51.100;13.998;2022-12-17T06:05:24;56.63;;;20.30;;
14076;SDS011;7114;51.100;13.998;2022-12-17T06:08:09;58.05;;;20.58;;
14076;SDS011;7114;51.100;13.998;2022-12-17T06:10:52;53.15;;;19.23;;
14076;SDS011;7114;51.100;13.998;2022-12-17T06:13:36;58.13;;;19.73;;
14076;SDS011;7114;51.100;13.998;2022-12-17T06:16:32;57.38;;;19.02;;
14076;SDS011;7114;51.100;13.998;2022-12-17T06:19:17;51.80;;;18.90;;
14076;SDS011;7114;51.100;13.998;2022-12-17T06:22:01;52.80;;;19.50;;
14076;SDS011;7114;51.100;13.998;2022-12-17T06:24:45;56.72;;;18.70;;
14076;SDS011;7114;51.100;13.998;2022-12-17T06:27:29;47.05;;;19.17;;
14076;SDS011;7114;51.100;13.998;2022-12-17T06:30:13;59.05;;;19.13;;
14076;SDS011;7114;51.100;13.998;2022-12-17T06:33:04;53.47;;;18.73;;
14076;SDS011;7114;51.100;13.998;2022-12-17T06:35:51;54.22;;;19.35;;
14076;SDS011;7114;51.100;13.998;2022-12-17T06:38:35;50.67;;;18.20;;
14076;SDS011;7114;51.100;13.998;2022-12-17T06:41:19;50.38;;;18.80;;
14076;SDS011;7114;51.100;13.998;2022-12-17T06:44:03;52.80;;;20.10;;
14076;SDS011;7114;51.100;13.998;2022-12-17T06:46:47;54.20;;;19.00;;
14076;SDS011;7114;51.100;13.998;2022-12-17T06:49:31;56.42;;;19.73;;
14076;SDS011;7114;51.100;13.998;2022-12-17T06:52:16;53.28;;;20.02;;
14076;SDS011;7114;51.100;13.998;2022-12-17T06:55:00;57.28;;;18.60;;
14076;SDS011;7114;51.100;13.998;2022-12-17T06:57:44;61.03;;;21.70;;
14076;SDS011;7114;51.100;13.998;2022-12-17T07:00:28;63.73;;;22.23;;
14076;SDS011;7114;51.100;13.998;2022-12-17T07:03:12;73.07;;;25.00;;
14076;SDS011;7114;51.100;13.998;2022-12-17T07:05:58;91.82;;;29.05;;
14076;SDS011;7114;51.100;13.998;2022-12-17T07:08:43;99.22;;;33.00;;
14076;SDS011;7114;51.100;13.998;2022-12-17T07:11:27;96.13;;;31.90;;
14076;SDS011;7114;51.100;13.998;2022-12-17T07:14:11;96.20;;;30.33;;
14076;SDS011;7114;51.100;13.998;2022-12-17T07:16:55;81.47;;;28.50;;
14076;SDS011;7114;51.100;13.998;2022-12-17T07:19:39;84.75;;;30.35;;
14076;SDS011;7114;51.100;13.998;2022-12-17T07:22:23;71.88;;;26.00;;
14076;SDS011;7114;51.100;13.998;2022-12-17T07:25:08;70.45;;;24.50;;
14076;SDS011;7114;51.100;13.998;2022-12-17T07:27:53;58.50;;;22.73;;
14076;SDS011;7114;51.100;13.998;2022-12-17T07:30:37;60.75;;;21.98;;
14076;SDS011;7114;51.100;13.998;2022-12-17T07:33:21;58.80;;;20.63;;
14076;SDS011;7114;51.100;13.998;2022-12-17T07:36:05;55.75;;;21.45;;
14076;SDS011;7114;51.100;13.998;2022-12-17T07:38:49;55.97;;;20.60;;
14076;SDS011;7114;51.100;13.998;2022-12-17T07:41:35;59.23;;;20.43;;
14076;SDS011;7114;51.100;13.998;2022-12-17T07:44:19;54.72;;;20.88;;
14076;SDS011;7114;51.100;13.998;2022-12-17T07:47:03;57.13;;;20.58;;
14076;SDS011;7114;51.100;13.998;2022-12-17T07:49:47;58.30;;;22.08;;
14076;SDS011;7114;51.100;13.998;2022-12-17T07:52:31;61.92;;;21.38;;
14076;SDS011;7114;51.100;13.998;2022-12-17T07:55:15;57.33;;;20.93;;
14076;SDS011;7114;51.100;13.998;2022-12-17T07:58:00;60.45;;;21.70;;
14076;SDS011;7114;51.100;13.998;2022-12-17T08:00:45;58.50;;;21.10;;
14076;SDS011;7114;51.100;13.998;2022-12-17T08:03:30;64.07;;;22.17;;
14076;SDS011;7114;51.100;13.998;2022-12-17T08:06:14;67.90;;;22.27;;
14076;SDS011;7114;51.100;13.998;2022-12-17T08:08:58;66.03;;;21.43;;
14076;SDS011;7114;51.100;13.998;2022-12-17T08:11:42;69.50;;;23.10;;
14076;SDS011;7114;51.100;13.998;2022-12-17T08:14:27;68.47;;;23.00;;
14076;SDS011;7114;51.100;13.998;2022-12-17T08:17:11;70.53;;;24.30;;
14076;SDS011;7114;51.100;13.998;2022-12-17T08:19:55;65.68;;;23.50;;
14076;SDS011;7114;51.100;13.998;2022-12-17T08:22:39;62.87;;;23.00;;
14076;SDS011;7114;51.100;13.998;2022-12-17T08:25:23;68.95;;;22.10;;
14076;SDS011;7114;51.100;13.998;2022-12-17T08:28:07;69.18;;;23.30;;
14076;SDS011;7114;51.100;13.998;2022-12-17T08:30:52;61.72;;;22.88;;
14076;SDS011;7114;51.100;13.998;2022-12-17T08:33:36;65.85;;;22.73;;
14076;SDS011;7114;51.100;13.998;2022-12-17T08:36:20;65.03;;;21.63;;
14076;SDS011;7114;51.100;13.998;2022-12-17T08:39:04;66.07;;;21.58;;
14076;SDS011;7114;51.100;13.998;2022-12-17T08:41:48;61.75;;;20.75;;
14076;SDS011;7114;51.100;13.998;2022-12-17T08:44:32;55.28;;;21.17;;
14076;SDS011;7114;51.100;13.998;2022-12-17T08:47:23;65.25;;;21.80;;
14076;SDS011;7114;51.100;13.998;2022-12-17T08:50:07;62.57;;;21.83;;
14076;SDS011;7114;51.100;13.998;2022-12-17T08:52:55;68.80;;;23.15;;
14076;SDS011;7114;51.100;13.998;2022-12-17T08:55:40;69.13;;;22.15;;
14076;SDS011;7114;51.100;13.998;2022-12-17T08:58:24;79.00;;;22.40;;
14076;SDS011;7114;51.100;13.998;2022-12-17T09:01:08;70.43;;;23.17;;
14076;SDS011;7114;51.100;13.998;2022-12-17T09:03:53;72.57;;;23.47;;
14076;SDS011;7114;51.100;13.998;2022-12-17T09:06:37;73.63;;;24.67;;
14076;SDS011;7114;51.100;13.998;2022-12-17T09:09:21;67.32;;;22.58;;
14076;SDS011;7114;51.100;13.998;2022-12-17T09:12:05;72.50;;;23.98;;
14076;SDS011;7114;51.100;13.998;2022-12-17T09:14:49;66.45;;;22.75;;
14076;SDS011;7114;51.100;13.998;2022-12-17T09:17:33;69.10;;;22.60;;
14076;SDS011;7114;51.100;13.998;2022-12-17T09:20:18;70.95;;;23.55;;
14076;SDS011;7114;51.100;13.998;2022-12-17T09:23:02;72.78;;;23.20;;
14076;SDS011;7114;51.100;13.998;2022-12-17T09:25:51;73.05;;;23.33;;
14076;SDS011;7114;51.100;13.998;2022-12-17T09:28:35;72.22;;;24.13;;
14076;SDS011;7114;51.100;13.998;2022-12-17T09:31:19;75.57;;;25.23;;
14076;SDS011;7114;51.100;13.998;2022-12-17T09:34:03;76.00;;;24.75;;
14076;SDS011;7114;51.100;13.998;2022-12-17T09:36:48;76.78;;;25.63;;
14076;SDS011;7114;51.100;13.998;2022-12-17T09:39:32;85.13;;;25.35;;
14076;SDS011;7114;51.100;13.998;2022-12-17T09:42:17;68.10;;;22.13;;
14076;SDS011;7114;51.100;13.998;2022-12-17T09:45:05;72.47;;;23.37;;
14076;SDS011;7114;51.100;13.998;2022-12-17T09:47:54;64.85;;;22.02;;
14076;SDS011;7114;51.100;13.998;2022-12-17T09:50:43;66.47;;;21.83;;
14076;SDS011;7114;51.100;13.998;2022-12-17T09:53:31;61.47;;;20.80;;
14076;SDS011;7114;51.100;13.998;2022-12-17T09:56:19;64.40;;;20.40;;
14076;SDS011;7114;51.100;13.998;2022-12-17T09:59:04;60.90;;;19.93;;
14076;SDS011;7114;51.100;13.998;2022-12-17T10:01:48;55.92;;;18.63;;
14076;SDS011;7114;51.100;13.998;2022-12-17T10:04:32;64.55;;;20.42;;
14076;SDS011;7114;51.100;13.998;2022-12-17T10:07:19;63.38;;;20.88;;
14076;SDS011;7114;51.100;13.998;2022-12-17T10:10:16;62.88;;;19.48;;
14076;SDS011;7114;51.100;13.998;2022-12-17T10:13:06;65.27;;;20.13;;
14076;SDS011;7114;51.100;13.998;2022-12-17T10:15:52;60.40;;;19.58;;
14076;SDS011;7114;51.100;13.998;2022-12-17T10:18:36;64.13;;;20.27;;
14076;SDS011;7114;51.100;13.998;2022-12-17T10:21:20;63.05;;;18.88;;
14076;SDS011;7114;51.100;13.998;2022-12-17T10:24:04;65.60;;;20.33;;
14076;SDS011;7114;51.100;13.998;2022-12-17T10:26:50;59.20;;;18.73;;
14076;SDS011;7114;51.100;13.998;2022-12-17T10:29:33;59.20;;;19.85;;
14076;SDS011;7114;51.100;13.998;2022-12-17T10:32:18;58.55;;;18.95;;
14076;SDS011;7114;51.100;13.998;2022-12-17T10:35:06;60.45;;;19.08;;
14076;SDS011;7114;51.100;13.998;2022-12-17T10:37:51;61.78;;;19.25;;
14076;SDS011;7114;51.100;13.998;2022-12-17T10:40:35;56.80;;;19.10;;
14076;SDS011;7114;51.100;13.998;2022-12-17T10:43:24;60.42;;;18.27;;
14076;SDS011;7114;51.100;13.998;2022-12-17T10:46:10;65.85;;;19.67;;
14076;SDS011;7114;51.100;13.998;2022-12-17T10:49:04;59.35;;;18.77;;
14076;SDS011;7114;51.100;13.998;2022-12-17T10:51:51;53.97;;;17.98;;
14076;SDS011;7114;51.100;13.998;2022-12-17T10:54:42;55.47;;;18.87;;
14076;SDS011;7114;51.100;13.998;2022-12-17T10:57:26;64.80;;;19.40;;
14076;SDS011;7114;51.100;13.998;2022-12-17T11:00:24;60.42;;;19.33;;
14076;SDS011;7114;51.100;13.998;2022-12-17T11:03:21;66.72;;;19.95;;
14076;SDS011;7114;51.100;13.998;2022-12-17T11:06:07;70.47;;;21.27;;
14076;SDS011;7114;51.100;13.998;2022-12-17T11:08:52;72.03;;;21.20;;
14076;SDS011;7114;51.100;13.998;2022-12-17T11:11:36;64.80;;;20.00;;
14076;SDS011;7114;51.100;13.998;2022-12-17T11:14:21;61.22;;;18.52;;
14076;SDS011;7114;51.100;13.998;2022-12-17T11:17:08;67.60;;;20.30;;
14076;SDS011;7114;51.100;13.998;2022-12-17T11:19:58;63.88;;;19.83;;
14076;SDS011;7114;51.100;13.998;2022-12-17T11:22:45;69.27;;;19.60;;
14076;SDS011;7114;51.100;13.998;2022-12-17T11:25:39;66.40;;;20.00;;
14076;SDS011;7114;51.100;13.998;2022-12-17T11:28:26;60.53;;;18.90;;
14076;SDS011;7114;51.100;13.998;2022-12-17T11:31:21;63.25;;;20.50;;
14076;SDS011;7114;51.100;13.998;2022-12-17T11:34:19;58.08;;;18.95;;
14076;SDS011;7114;51.100;13.998;2022-12-17T11:37:09;65.17;;;19.43;;
14076;SDS011;7114;51.100;13.998;2022-12-17T11:39:59;69.63;;;20.48;;
14076;SDS011;7114;51.100;13.998;2022-12-17T11:42:48;61.10;;;19.98;;
14076;SDS011;7114;51.100;13.998;2022-12-17T11:45:37;67.80;;;19.95;;
14076;SDS011;7114;51.100;13.998;2022-12-17T11:48:33;62.67;;;20.38;;
14076;SDS011;7114;51.100;13.998;2022-12-17T11:51:22;58.40;;;17.73;;
14076;SDS011;7114;51.100;13.998;2022-12-17T11:54:10;64.78;;;20.00;;
14076;SDS011;7114;51.100;13.998;2022-12-17T11:57:00;65.25;;;19.73;;
14076;SDS011;7114;51.100;13.998;2022-12-17T11:59:47;73.80;;;20.98;;
14076;SDS011;7114;51.100;13.998;2022-12-17T12:02:39;75.72;;;21.33;;
14076;SDS011;7114;51.100;13.998;2022-12-17T12:05:30;64.30;;;20.57;;
14076;SDS011;7114;51.100;13.998;2022-12-17T12:08:20;68.85;;;21.70;;
14076;SDS011;7114;51.100;13.998;2022-12-17T12:11:10;73.15;;;21.35;;
14076;SDS011;7114;51.100;13.998;2022-12-17T12:14:01;62.78;;;20.90;;
14076;SDS011;7114;51.100;13.998;2022-12-17T12:16:47;61.03;;;19.98;;
14076;SDS011;7114;51.100;13.998;2022-12-17T12:19:36;60.87;;;19.87;;
14076;SDS011;7114;51.100;13.998;2022-12-17T12:22:27;73.45;;;20.42;;
14076;SDS011;7114;51.100;13.998;2022-12-17T12:25:18;63.72;;;19.27;;
14076;SDS011;7114;51.100;13.998;2022-12-17T12:28:06;68.25;;;20.10;;
14076;SDS011;7114;51.100;13.998;2022-12-17T12:30:55;65.95;;;21.30;;
14076;SDS011;7114;51.100;13.998;2022-12-17T12:33:44;70.63;;;19.73;;
14076;SDS011;7114;51.100;13.998;2022-12-17T12:36:31;63.75;;;20.48;;
14076;SDS011;7114;51.100;13.998;2022-12-17T12:39:18;63.00;;;20.65;;
14076;SDS011;7114;51.100;13.998;2022-12-17T12:42:13;71.03;;;20.45;;
14076;SDS011;7114;51.100;13.998;2022-12-17T12:45:01;69.57;;;19.67;;
14076;SDS011;7114;51.100;13.998;2022-12-17T12:47:49;71.00;;;20.97;;
14076;SDS011;7114;51.100;13.998;2022-12-17T12:50:38;66.78;;;20.05;;
14076;SDS011;7114;51.100;13.998;2022-12-17T12:53:27;67.03;;;21.63;;
14076;SDS011;7114;51.100;13.998;2022-12-17T12:56:27;66.28;;;20.25;;
14076;SDS011;7114;51.100;13.998;2022-12-17T12:59:19;71.80;;;21.08;;
14076;SDS011;7114;51.100;13.998;2022-12-17T13:02:11;64.33;;;21.10;;
14076;SDS011;7114;51.100;13.998;2022-12-17T13:04:57;70.05;;;20.20;;
14076;SDS011;7114;51.100;13.998;2022-12-17T13:07:41;62.30;;;19.55;;
14076;SDS011;7114;51.100;13.998;2022-12-17T13:10:15;60.55;;;18.40;;
14076;SDS011;7114;51.100;13.998;2022-12-17T13:12:46;63.45;;;19.45;;
14076;SDS011;7114;51.100;13.998;2022-12-17T13:15:19;59.03;;;19.63;;
14076;SDS011;7114;51.100;13.998;2022-12-17T13:17:55;62.28;;;19.02;;
14076;SDS011;7114;51.100;13.998;2022-12-17T13:20:26;62.35;;;19.33;;
14076;SDS011;7114;51.100;13.998;2022-12-17T13:23:03;65.28;;;19.55;;
14076;SDS011;7114;51.100;13.998;2022-12-17T13:25:40;57.65;;;17.45;;
14076;SDS011;7114;51.100;13.998;2022-12-17T13:31:00;62.15;;;18.88;;
14076;SDS011;7114;51.100;13.998;2022-12-17T13:33:28;59.88;;;18.77;;
14076;SDS011;7114;51.100;13.998;2022-12-17T13:36:05;59.72;;;17.77;;
14076;SDS011;7114;51.100;13.998;2022-12-17T13:38:42;60.65;;;18.95;;
14076;SDS011;7114;51.100;13.998;2022-12-17T13:41:13;64.83;;;19.67;;
14076;SDS011;7114;51.100;13.998;2022-12-17T13:43:41;59.78;;;19.67;;
14076;SDS011;7114;51.100;13.998;2022-12-17T13:46:17;57.42;;;19.38;;
14076;SDS011;7114;51.100;13.998;2022-12-17T13:48:50;58.53;;;19.08;;
14076;SDS011;7114;51.100;13.998;2022-12-17T13:51:18;65.18;;;19.58;;
14076;SDS011;7114;51.100;13.998;2022-12-17T13:53:49;64.93;;;20.77;;
14076;SDS011;7114;51.100;13.998;2022-12-17T13:56:20;63.10;;;20.88;;
14076;SDS011;7114;51.100;13.998;2022-12-17T13:58:49;65.47;;;20.10;;
14076;SDS011;7114;51.100;13.998;2022-12-17T14:01:18;58.85;;;18.27;;
14076;SDS011;7114;51.100;13.998;2022-12-17T14:03:48;50.13;;;16.70;;
14076;SDS011;7114;51.100;13.998;2022-12-17T14:06:15;68.10;;;18.97;;
14076;SDS011;7114;51.100;13.998;2022-12-17T14:08:41;57.03;;;17.90;;
14076;SDS011;7114;51.100;13.998;2022-12-17T14:11:09;56.75;;;19.67;;
14076;SDS011;7114;51.100;13.998;2022-12-17T14:13:54;63.30;;;19.00;;
14076;SDS011;7114;51.100;13.998;2022-12-17T14:16:21;62.13;;;17.85;;
14076;SDS011;7114;51.100;13.998;2022-12-17T14:18:50;60.17;;;17.73;;
14076;SDS011;7114;51.100;13.998;2022-12-17T14:21:17;57.83;;;18.10;;
14076;SDS011;7114;51.100;13.998;2022-12-17T14:23:44;52.90;;;17.35;;
14076;SDS011;7114;51.100;13.998;2022-12-17T14:26:10;54.70;;;17.15;;
14076;SDS011;7114;51.100;13.998;2022-12-17T14:28:43;56.13;;;17.48;;
14076;SDS011;7114;51.100;13.998;2022-12-17T14:31:14;55.87;;;17.67;;
14076;SDS011;7114;51.100;13.998;2022-12-17T14:33:44;55.35;;;16.55;;
14076;SDS011;7114;51.100;13.998;2022-12-17T14:36:16;52.63;;;16.67;;
14076;SDS011;7114;51.100;13.998;2022-12-17T14:38:49;55.40;;;16.73;;
14076;SDS011;7114;51.100;13.998;2022-12-17T14:41:17;55.75;;;17.17;;
14076;SDS011;7114;51.100;13.998;2022-12-17T14:44:01;49.57;;;16.37;;
14076;SDS011;7114;51.100;13.998;2022-12-17T14:46:28;50.47;;;16.35;;
14076;SDS011;7114;51.100;13.998;2022-12-17T14:48:58;55.45;;;17.52;;
14076;SDS011;7114;51.100;13.998;2022-12-17T14:51:26;56.00;;;17.25;;
14076;SDS011;7114;51.100;13.998;2022-12-17T14:54:03;58.85;;;17.27;;
14076;SDS011;7114;51.100;13.998;2022-12-17T14:56:31;50.23;;;16.67;;
14076;SDS011;7114;51.100;13.998;2022-12-17T14:58:57;51.90;;;16.55;;
14076;SDS011;7114;51.100;13.998;2022-12-17T15:01:23;50.35;;;17.73;;
14076;SDS011;7114;51.100;13.998;2022-12-17T15:03:50;59.30;;;18.13;;
14076;SDS011;7114;51.100;13.998;2022-12-17T15:06:18;56.55;;;17.88;;
14076;SDS011;7114;51.100;13.998;2022-12-17T15:08:45;60.53;;;17.83;;
14076;SDS011;7114;51.100;13.998;2022-12-17T15:11:13;51.58;;;16.35;;
14076;SDS011;7114;51.100;13.998;2022-12-17T15:13:40;54.33;;;16.48;;
14076;SDS011;7114;51.100;13.998;2022-12-17T15:16:06;47.50;;;16.05;;
14076;SDS011;7114;51.100;13.998;2022-12-17T15:18:33;52.22;;;16.10;;
14076;SDS011;7114;51.100;13.998;2022-12-17T15:21:00;43.20;;;15.17;;
14076;SDS011;7114;51.100;13.998;2022-12-17T15:23:28;47.65;;;14.80;;
14076;SDS011;7114;51.100;13.998;2022-12-17T15:25:55;52.42;;;14.82;;
14076;SDS011;7114;51.100;13.998;2022-12-17T15:28:22;47.65;;;15.10;;
14076;SDS011;7114;51.100;13.998;2022-12-17T15:30:48;48.95;;;15.13;;
14076;SDS011;7114;51.100;13.998;2022-12-17T15:33:15;46.60;;;14.73;;
14076;SDS011;7114;51.100;13.998;2022-12-17T15:35:41;48.58;;;14.15;;
14076;SDS011;7114;51.100;13.998;2022-12-17T15:38:08;47.50;;;13.13;;
14076;SDS011;7114;51.100;13.998;2022-12-17T15:40:37;44.00;;;13.75;;
14076;SDS011;7114;51.100;13.998;2022-12-17T15:43:03;41.58;;;12.25;;
14076;SDS011;7114;51.100;13.998;2022-12-17T15:45:35;45.73;;;15.10;;
14076;SDS011;7114;51.100;13.998;2022-12-17T15:48:01;46.75;;;14.40;;
14076;SDS011;7114;51.100;13.998;2022-12-17T15:50:28;52.15;;;14.75;;
14076;SDS011;7114;51.100;13.998;2022-12-17T15:52:54;40.17;;;12.68;;
14076;SDS011;7114;51.100;13.998;2022-12-17T15:55:20;39.38;;;12.68;;